28. September 2022

Uhrzeit Code Wetter Temp. Sichtweite Wolkendecke Wind METAR/SPECI
08:30
V
16 °C 10 km+ - 260° 260° 7 kt METAR LFBA 280630Z AUTO 26007KT 9999 FEW013 16/14 Q1008 TEMPO 27015G25KT 3000 SHRA BKN013TCU
08:00
M
16 °C 10 km+ 1.900 ft 260° 260° 7 kt METAR LFBA 280600Z AUTO 26007KT 230V290 9999 BKN019 16/14 Q1008 TEMPO 27015G25KT 3000 SHRA BKN013TCU
07:30
V
16 °C 10 km+ - 260° 260° 8 kt METAR LFBA 280530Z AUTO 26008KT 230V290 9999 SCT019 SCT035 16/14 Q1009
07:00
M
16 °C 10 km+ 1.800 ft 270° 270° 7 kt METAR LFBA 280500Z AUTO 27007KT 9999 BKN018 16/15 Q1009
06:30
M
16 °C 10 km+ 2.300 ft 270° 270° 9 kt METAR LFBA 280430Z AUTO 27009KT 9999 SCT017 BKN023 16/15 Q1009
06:00
M
16 °C 10 km+ 2.300 ft 270° 270° 8 kt METAR LFBA 280400Z AUTO 27008KT 240V300 9999 SCT016 BKN023 OVC033 16/15 Q1009
05:30
M
17 °C 10 km+ 1.600 ft 270° 270° 9 kt METAR LFBA 280330Z AUTO 27009KT 9999 BKN016 OVC033 17/15 Q1009
05:00
M
16 °C 10 km+ 2.100 ft 280° 280° 8 kt METAR LFBA 280300Z AUTO 28008KT 9999 SCT016 BKN021 BKN032 16/15 Q1009
04:30
M
16 °C 10 km+ 1.000 ft 280° 280° 9 kt METAR LFBA 280230Z AUTO 28009KT 9999 BKN010/// BKN015/// OVC035/// ///TCU 16/16 Q1009
04:00
M
17 °C 5 km 1.300 ft 260° 260° 8 kt METAR LFBA 280200Z AUTO 26008KT 220V280 5000 +RA BR FEW005/// BKN013/// OVC018/// ///TCU 17/16 Q1010
03:30
M
16 °C 10 km+ 1.400 ft 250° 250° 9 kt METAR LFBA 280130Z AUTO 25009KT 220V280 9999 FEW009/// BKN014/// OVC021/// ///CB 16/15 Q1010
03:00
I
16 °C 4,6 km 1.000 ft 260° 260° 8 kt METAR LFBA 280100Z AUTO 26008KT 220V290 9999 4600 RA BKN010/// BKN014/// BKN019/// ///CB 16/15 Q1010
02:30
M
16 °C 6 km 2.200 ft 250° 250° 9 kt METAR LFBA 280030Z AUTO 25009KT 220V280 6000 RA FEW009/// OVC022/// ///TCU 16/15 Q1010
02:00
M
16 °C 10 km+ 2.500 ft 250° 250° 9 kt METAR LFBA 280000Z AUTO 25009KT 9999 FEW009/// BKN025/// BKN032/// ///TCU 16/15 Q1011
01:30
I
16 °C 10 km+ 900 ft 250° 250° 12 kt METAR LFBA 272330Z AUTO 25012KT 220V280 9999 -RA BKN009/// BKN018/// BKN025/// ///TCU 16/15 Q1011
01:00
I
15 °C 4,9 km 1.000 ft 240° 240° 12 kt METAR LFBA 272300Z AUTO 24012KT 210V270 4900 -RA BR BKN010 BKN014 BKN030 15/14 Q1011
00:30
I
15 °C 4,9 km 3.200 ft 240° 240° 11 kt METAR LFBA 272230Z AUTO 24011KT 9999 4900 -RA FEW013/// BKN032/// BKN041/// ///TCU 15/14 Q1012
00:00
V
15 °C 10 km+ 3.700 ft 240° 240° 12 kt METAR LFBA 272200Z AUTO 24012KT 210V270 9999 FEW011 SCT029 OVC037 15/14 Q1012

27. September 2022

Uhrzeit Code Wetter Temp. Sichtweite Wolkendecke Wind METAR/SPECI
23:30
V
15 °C 10 km+ 4.400 ft 250° 250° 9 kt METAR LFBA 272130Z AUTO 25009KT 220V280 9999 -RA FEW013/// SCT038/// BKN044/// ///TCU 15/14 Q1013
23:00
V
15 °C 9 km 4.700 ft 240° 240° 7 kt METAR LFBA 272100Z AUTO 24007KT 210V280 9000 RA BKN047/// OVC054/// ///TCU 15/14 Q1013
22:30
V
16 °C 10 km+ - 250° 250° 8 kt METAR LFBA 272030Z AUTO 25008KT 220V280 9999 -RA ///TCU 16/14 Q1013
22:00
V
16 °C 10 km+ 5.400 ft 250° 250° 9 kt METAR LFBA 272000Z AUTO 25009KT 220V280 9999 FEW043/// BKN054/// BKN070/// //////TCU 16/13 Q1013 BECMG BKN035
21:30
V
16 °C 10 km+ 6.600 ft 250° 250° 10 kt METAR LFBA 271930Z AUTO 25010KT 220V280 9999 FEW032 SCT049 BKN066 16/13 Q1014 NOSIG
21:00
V
16 °C 10 km+ 3.600 ft 240° 240° 10 kt METAR LFBA 271900Z AUTO 24010KT 9999 FEW028 BKN036 OVC070 16/13 Q1013 NOSIG
20:30
V
16 °C 10 km+ 5.200 ft 260° 260° 9 kt METAR LFBA 271830Z AUTO 26009KT 230V300 9999 SCT038 BKN052 BKN070 16/13 Q1014 NOSIG
20:00
V
16 °C 10 km+ 5.400 ft 260° 260° 9 kt METAR LFBA 271800Z AUTO 26009KT 220V280 9999 FEW042 BKN054 BKN068 16/13 Q1013 NOSIG
19:30
V
17 °C 10 km+ 5.800 ft 260° 260° 10 kt METAR LFBA 271730Z AUTO 26010KT 9999 FEW033 BKN058 17/12 Q1013 NOSIG
19:00
V
18 °C 10 km+ 3.700 ft 250° 250° 10 kt METAR LFBA 271700Z AUTO 25010KT 9999 BKN037 BKN052 BKN062 18/13 Q1013 NOSIG
18:30
V
18 °C 10 km+ 12.000 ft 280° 280° 5 kt METAR LFBA 271630Z AUTO 28005KT 9999 FEW039 SCT074 BKN120 18/13 Q1013 NOSIG
18:00
V
18 °C 10 km+ 6.000 ft 290° 290° 8 kt METAR LFBA 271600Z AUTO 29008KT 9999 FEW034 BKN060 OVC072 18/13 Q1013 NOSIG
17:30
V
18 °C 10 km+ 3.500 ft 290° 290° 12 kt METAR LFBA 271530Z AUTO 29012KT 9999 FEW026 BKN035 BKN052 18/13 Q1013 NOSIG
17:00
V
19 °C 10 km+ 7.000 ft 290° 290° 12 kt METAR LFBA 271500Z AUTO 29012KT 9999 FEW040 BKN070 19/12 Q1013 TEMPO SCT025TCU BKN050
16:30
V
18 °C 10 km+ 5.200 ft 290° 290° 11 kt METAR LFBA 271430Z AUTO 29011KT 9999 SCT035 BKN052 BKN064 18/12 Q1013 TEMPO SCT025TCU BKN050
16:00
V
18 °C 10 km+ 3.900 ft 270° 270° 10 kt METAR LFBA 271400Z AUTO 27010KT 9999 BKN039 BKN047 BKN068 18/11 Q1013 BECMG SCT025TCU BKN050
15:30
V
19 °C 10 km+ 6.600 ft 300° 300° 10 kt METAR LFBA 271330Z AUTO 30010KT 270V340 9999 FEW044 BKN066 19/11 Q1013 TEMPO SCT025TCU
15:00
V
19 °C 10 km+ 4.200 ft 310° 310° 14 kt METAR LFBA 271300Z AUTO 31014KT 280V340 9999 FEW030 BKN042 OVC064 19/11 Q1013 TEMPO SCT025TCU
14:30
V
18 °C 10 km+ 6.400 ft 280° 280° 11 kt METAR LFBA 271230Z AUTO 28011KT 230V320 9999 SCT040 BKN064 18/10 Q1014 BECMG SCT025TCU BKN050
14:00
V
18 °C 10 km+ - 280° 280° 9 kt METAR LFBA 271200Z AUTO 28009KT 240V300 CAVOK 18/10 Q1014 BECMG SCT025TCU BKN050
13:30
V
18 °C 10 km+ 4.300 ft 270° 270° 10 kt METAR LFBA 271130Z AUTO 27010KT 240V300 9999 SCT037 BKN043 OVC052 18/11 Q1014 TEMPO SCT025TCU
13:00
V
17 °C 10 km+ 4.300 ft 290° 290° 11 kt METAR LFBA 271100Z AUTO 29011KT 9999 FEW029 SCT035 BKN043 17/11 Q1014 BECMG SCT015TCU BKN050
12:30
V
17 °C 10 km+ 3.700 ft 290° 290° 10 kt METAR LFBA 271030Z AUTO 29010KT 270V330 9999 SCT029 BKN037 BKN046 17/11 Q1014 TEMPO SCT025TCU
12:00
V
17 °C 10 km+ 5.800 ft 290° 290° 9 kt METAR LFBA 271000Z AUTO 29009KT 240V320 9999 FEW028 SCT036 OVC058 17/11 Q1014 TEMPO SCT025TCU
11:30
V
16 °C 10 km+ 4.300 ft 290° 290° 9 kt METAR LFBA 270930Z AUTO 29009KT 9999 FEW022 SCT034 BKN043 16/12 Q1014 BECMG SCT015TCU BKN050
11:00
M
16 °C 10 km+ 1.800 ft 280° 280° 8 kt METAR LFBA 270900Z AUTO 28008KT 240V330 9999 BKN018 BKN034 BKN040 16/13 Q1014 BECMG SCT015TCU BKN050
10:30
V
15 °C 10 km+ 4.500 ft 280° 280° 7 kt METAR LFBA 270830Z AUTO 28007KT 240V310 9999 FEW014 BKN045 BKN054 15/12 Q1014 TEMPO SCT025TCU
10:00
V
15 °C 10 km+ - 290° 290° 6 kt METAR LFBA 270800Z AUTO 29006KT 250V320 CAVOK 15/12 Q1014 TEMPO SCT025TCU
09:30
V
14 °C 10 km+ - 260° 260° 4 kt METAR LFBA 270730Z AUTO 26004KT 230V300 CAVOK 14/12 Q1013 TEMPO SCT025TCU
09:00
V
13 °C 10 km+ 5.600 ft 290° 290° 4 kt METAR LFBA 270700Z AUTO 29004KT 9999 FEW024 SCT038 BKN056 13/12 Q1013 TEMPO SCT025TCU
08:30
V
13 °C 10 km+ 6.200 ft 290° 290° 4 kt METAR LFBA 270630Z AUTO 29004KT 9999 FEW037 BKN062 13/12 Q1013 TEMPO SCT025TCU
08:00
V
13 °C 10 km+ 4.000 ft 290° 290° 5 kt METAR LFBA 270600Z AUTO 29005KT 9999 SCT034 BKN040 BKN049 13/12 Q1013 TEMPO SCT025TCU
07:30
V
13 °C 10 km+ 3.500 ft 310° 310° 4 kt METAR LFBA 270530Z AUTO 31004KT 9999 BKN035 BKN043 OVC062 13/12 Q1012
07:00
V
13 °C 10 km+ 6.000 ft 270° 270° 4 kt METAR LFBA 270500Z AUTO 27004KT 9999 FEW038 BKN060 13/12 Q1012
06:30
V
13 °C 10 km+ 5.800 ft 270° 270° 5 kt METAR LFBA 270430Z AUTO 27005KT 9999 SCT038 OVC058 13/12 Q1012
06:00
V
14 °C 10 km+ 5.400 ft 270° 270° 5 kt METAR LFBA 270400Z AUTO 27005KT 9999 FEW044 OVC054 14/12 Q1012
05:30
V
14 °C 10 km+ 4.300 ft 270° 270° 6 kt METAR LFBA 270330Z AUTO 27006KT 9999 BKN043 BKN050 14/13 Q1012
05:00
V
14 °C 10 km+ - 260° 260° 7 kt METAR LFBA 270300Z AUTO 26007KT 230V290 CAVOK 14/13 Q1011
04:30
V
14 °C 10 km+ - 270° 270° 7 kt METAR LFBA 270230Z AUTO 27007KT CAVOK 14/13 Q1011
04:00
V
14 °C 10 km+ - 280° 280° 8 kt METAR LFBA 270200Z AUTO 28008KT CAVOK 14/13 Q1011
03:30
V
14 °C 10 km+ 5.600 ft 280° 280° 8 kt METAR LFBA 270130Z AUTO 28008KT 9999 SCT025 BKN056 14/13 Q1011
03:00
V
15 °C 10 km+ 5.600 ft 280° 280° 7 kt METAR LFBA 270100Z AUTO 28007KT 9999 FEW015 OVC056 15/13 Q1011
02:30
V
15 °C 10 km+ 5.000 ft 270° 270° 8 kt METAR LFBA 270030Z AUTO 27008KT 9999 FEW015 OVC050 15/14 Q1011
02:00
V
15 °C 10 km+ 4.700 ft 260° 260° 8 kt METAR LFBA 270000Z AUTO 26008KT 9999 SCT019 BKN047 OVC056 15/14 Q1011
01:30
V
14 °C 10 km+ 3.000 ft 260° 260° 6 kt METAR LFBA 262330Z AUTO 26006KT 9999 SCT022 BKN030 BKN039 14/14 Q1011
01:00
I
14 °C 4,9 km 2.400 ft 280° 280° 11 kt METAR LFBA 262300Z AUTO 28011KT 4900 -RA BR FEW007 BKN024 BKN030 14/14 Q1011
00:30
M
15 °C 5 km 1.000 ft 260° 260° 9 kt METAR LFBA 262230Z AUTO 26009KT 230V300 5000 RA BR BKN010/// BKN017/// BKN028/// //////TCU 15/13 Q1011
00:00
V
16 °C 10 km+ 4.100 ft 260° 260° 12 kt METAR LFBA 262200Z AUTO 26012KT 230V290 9999 -RADZ SCT025/// BKN041/// BKN048/// //////TCU 16/12 Q1011

26. September 2022

Uhrzeit Code Wetter Temp. Sichtweite Wolkendecke Wind METAR/SPECI
23:30
V
16 °C 10 km+ 5.200 ft 240° 240° 10 kt METAR LFBA 262130Z AUTO 24010KT 220V280 9999 -RA FEW025 SCT042 BKN052 16/12 Q1011
23:00
V
16 °C 10 km+ 5.800 ft 240° 240° 11 kt METAR LFBA 262100Z AUTO 24011KT 220V280 9999 FEW041 BKN058 OVC076 16/11 Q1011
22:30
V
17 °C 10 km+ - 240° 240° 10 kt METAR LFBA 262030Z AUTO 24010KT 210V280 CAVOK 17/10 Q1012
22:00
V
17 °C 10 km+ - 240° 240° 8 kt METAR LFBA 262000Z AUTO 24008KT 210V280 CAVOK 17/10 Q1012 NOSIG
21:30
V
17 °C 10 km+ 5.800 ft 250° 250° 10 kt METAR LFBA 261930Z AUTO 25010KT 9999 FEW049 BKN058 BKN100 17/09 Q1012 NOSIG
21:00
V
18 °C 10 km+ - 260° 260° 10 kt METAR LFBA 261900Z AUTO 26010KT CAVOK 18/09 Q1012 NOSIG
20:30
V
18 °C 10 km+ - 270° 270° 11 kt METAR LFBA 261830Z AUTO 27011KT CAVOK 18/09 Q1012 NOSIG
20:00
V
18 °C 10 km+ - 280° 280° 13 kt METAR LFBA 261800Z AUTO 28013KT 250V310 CAVOK 18/08 Q1012 NOSIG
19:30
V
19 °C 10 km+ - 270° 270° 12 kt METAR LFBA 261730Z AUTO 27012KT CAVOK 19/08 Q1012 NOSIG
19:00
V
20 °C 10 km+ - 270° 270° 16 kt METAR LFBA 261700Z AUTO 27016KT 240V300 CAVOK 20/08 Q1012 NOSIG
18:30
V
20 °C 10 km+ - 260° 260° 12 kt METAR LFBA 261630Z AUTO 26012KT CAVOK 20/09 Q1012 NOSIG
18:00
V
21 °C 10 km+ - 270° 270° 11 kt METAR LFBA 261600Z AUTO 27011KT 240V300 CAVOK 21/08 Q1012 NOSIG
17:30
V
21 °C 10 km+ - 270° 270° 13 kt METAR LFBA 261530Z AUTO 27013KT 230V300 CAVOK 21/09 Q1012 NOSIG
17:00
V
20 °C 10 km+ - 290° 290° 12 kt METAR LFBA 261500Z AUTO 29012KT CAVOK 20/09 Q1012 NOSIG
16:30
V
20 °C 10 km+ - 270° 270° 13 kt METAR LFBA 261430Z AUTO 27013KT CAVOK 20/09 Q1012 NOSIG
16:00
V
21 °C 10 km+ 4.900 ft 270° 270° 11 kt METAR LFBA 261400Z AUTO 27011KT 230V330 9999 BKN049 21/09 Q1013 NOSIG
15:30
V
20 °C 10 km+ 4.900 ft 290° 290° 9 kt METAR LFBA 261330Z AUTO 29009KT 250V320 9999 BKN049 BKN066 BKN082 20/09 Q1013 NOSIG
15:00
V
21 °C 10 km+ 6.000 ft 290° 290° 10 kt METAR LFBA 261300Z AUTO 29010KT 260V330 9999 FEW048 BKN060 BKN076 21/10 Q1013 NOSIG
14:30
V
20 °C 10 km+ 5.600 ft 270° 270° 8 kt METAR LFBA 261230Z AUTO 27008KT 230V300 9999 SCT045 BKN056 BKN070 20/10 Q1014 NOSIG
14:00
V
19 °C 10 km+ 6.800 ft 300° 300° 7 kt METAR LFBA 261200Z AUTO 30007KT 9999 SCT038 SCT052 BKN068 19/10 Q1014 NOSIG
13:30
V
19 °C 10 km+ 3.600 ft Var Var 6 kt METAR LFBA 261130Z AUTO VRB06KT 9999 BKN036 BKN048 OVC056 19/10 Q1014 NOSIG
13:00
V
20 °C 10 km+ - 260° 260° 6 kt METAR LFBA 261100Z AUTO 26006KT 220V300 9999 FEW030 SCT072 20/11 Q1014 NOSIG
12:30
M
18 °C 10 km+ 2.400 ft 240° 240° 5 kt METAR LFBA 261030Z AUTO 24005KT 180V300 9999 BKN024 BKN029 BKN035 18/11 Q1015 NOSIG
12:00
V
18 °C 10 km+ - Var Var 4 kt METAR LFBA 261000Z AUTO VRB04KT 9999 FEW020 18/12 Q1015 NOSIG
11:30
V
16 °C 10 km+ - Var Var 3 kt METAR LFBA 260930Z AUTO VRB03KT 9999 FEW017 16/12 Q1015 NOSIG
11:00
V
14 °C 10 km+ - Var Var 2 kt METAR LFBA 260900Z AUTO VRB02KT CAVOK 14/12 Q1015 NOSIG
10:30
V
12 °C 10 km+ - Var 000° 0 kt METAR LFBA 260830Z AUTO 00000KT CAVOK 12/11 Q1015 NOSIG
10:00
V
11 °C 10 km+ - Var Var 1 kt METAR LFBA 260800Z AUTO VRB01KT CAVOK 11/11 Q1015 NOSIG
09:30
V
10 °C 10 km+ - 330° 330° 1 kt METAR LFBA 260730Z AUTO 33001KT CAVOK 10/10 Q1015 NOSIG
09:00
V
9 °C 10 km+ - 310° 310° 2 kt METAR LFBA 260700Z AUTO 31002KT CAVOK 09/09 Q1015 NOSIG
08:30
V
7 °C 10 km+ - 330° 330° 1 kt METAR LFBA 260630Z AUTO 33001KT CAVOK 07/07 Q1015 NOSIG
08:00
V
7 °C 10 km+ - 350° 350° 2 kt METAR LFBA 260600Z AUTO 35002KT CAVOK 07/07 Q1015 TEMPO 2000 BR VV///
07:30
V
8 °C 10 km+ - Var Var 2 kt METAR LFBA 260530Z AUTO VRB02KT CAVOK 08/07 Q1015 TEMPO 2000 BR VV///
07:00
L
7 °C 2 km - 280° 280° 3 kt METAR LFBA 260500Z AUTO 28003KT 240V320 2000 R29/1400U BR VV/// 07/07 Q1015
Ältere Daten

Wir und Dritte verfolgen dein Internetverhalten auf unserer Website mit Cookies. Wenn du fortfährst, gehen wir davon aus, dass du mit unserer Cookie-Richtlinie einverstanden bist. Mehr erfahren